sensor_id;sensor_type;location;lat;lon;timestamp;P1;durP1;ratioP1;P2;durP2;ratioP2
63203;SDS011;49297;43.210;27.914;2022-09-09T00:01:07;2.70;;;2.15;;
63203;SDS011;49297;43.210;27.914;2022-09-09T00:03:43;2.67;;;1.90;;
63203;SDS011;49297;43.210;27.914;2022-09-09T00:06:19;3.13;;;2.38;;
63203;SDS011;49297;43.210;27.914;2022-09-09T00:09:24;2.75;;;2.03;;
63203;SDS011;49297;43.210;27.914;2022-09-09T00:11:48;3.05;;;2.25;;
63203;SDS011;49297;43.210;27.914;2022-09-09T00:17:09;3.85;;;2.38;;
63203;SDS011;49297;43.210;27.914;2022-09-09T00:22:23;2.28;;;2.08;;
63203;SDS011;49297;43.210;27.914;2022-09-09T00:25:02;4.75;;;2.50;;
63203;SDS011;49297;43.210;27.914;2022-09-09T00:27:41;3.87;;;2.33;;
63203;SDS011;49297;43.210;27.914;2022-09-09T00:30:15;4.55;;;2.38;;
63203;SDS011;49297;43.210;27.914;2022-09-09T00:35:48;3.03;;;2.17;;
63203;SDS011;49297;43.210;27.914;2022-09-09T00:38:15;3.03;;;2.33;;
63203;SDS011;49297;43.210;27.914;2022-09-09T00:40:49;4.25;;;2.65;;
63203;SDS011;49297;43.210;27.914;2022-09-09T00:52:17;2.70;;;1.75;;
63203;SDS011;49297;43.210;27.914;2022-09-09T00:57:51;3.88;;;2.45;;
63203;SDS011;49297;43.210;27.914;2022-09-09T01:08:02;3.25;;;2.10;;
63203;SDS011;49297;43.210;27.914;2022-09-09T01:13:09;3.67;;;2.90;;
63203;SDS011;49297;43.210;27.914;2022-09-09T01:15:42;3.20;;;2.70;;
63203;SDS011;49297;43.210;27.914;2022-09-09T01:18:12;3.17;;;2.30;;
63203;SDS011;49297;43.210;27.914;2022-09-09T01:28:42;6.95;;;2.97;;
63203;SDS011;49297;43.210;27.914;2022-09-09T01:31:11;4.40;;;2.43;;
63203;SDS011;49297;43.210;27.914;2022-09-09T01:33:42;2.88;;;2.28;;
63203;SDS011;49297;43.210;27.914;2022-09-09T01:36:09;5.97;;;2.67;;
63203;SDS011;49297;43.210;27.914;2022-09-09T01:38:49;3.28;;;2.30;;
63203;SDS011;49297;43.210;27.914;2022-09-09T01:41:15;8.75;;;2.90;;
63203;SDS011;49297;43.210;27.914;2022-09-09T01:43:41;4.50;;;2.57;;
63203;SDS011;49297;43.210;27.914;2022-09-09T01:46:07;3.38;;;2.50;;
63203;SDS011;49297;43.210;27.914;2022-09-09T01:48:33;4.72;;;2.60;;
63203;SDS011;49297;43.210;27.914;2022-09-09T01:50:59;3.95;;;2.85;;
63203;SDS011;49297;43.210;27.914;2022-09-09T01:53:25;3.42;;;2.35;;
63203;SDS011;49297;43.210;27.914;2022-09-09T01:55:55;3.20;;;2.80;;
63203;SDS011;49297;43.210;27.914;2022-09-09T02:01:16;3.58;;;2.70;;
63203;SDS011;49297;43.210;27.914;2022-09-09T02:03:55;4.70;;;2.58;;
63203;SDS011;49297;43.210;27.914;2022-09-09T02:08:56;4.25;;;2.30;;
63203;SDS011;49297;43.210;27.914;2022-09-09T02:14:20;3.10;;;2.70;;
63203;SDS011;49297;43.210;27.914;2022-09-09T02:16:51;5.43;;;2.60;;
63203;SDS011;49297;43.210;27.914;2022-09-09T02:19:29;4.07;;;2.60;;
63203;SDS011;49297;43.210;27.914;2022-09-09T02:21:59;2.85;;;2.65;;
63203;SDS011;49297;43.210;27.914;2022-09-09T02:24:27;4.57;;;2.70;;
63203;SDS011;49297;43.210;27.914;2022-09-09T02:26:55;3.37;;;2.67;;
63203;SDS011;49297;43.210;27.914;2022-09-09T02:29:27;3.63;;;2.63;;
63203;SDS011;49297;43.210;27.914;2022-09-09T02:31:56;3.42;;;2.95;;
63203;SDS011;49297;43.210;27.914;2022-09-09T02:34:28;3.50;;;2.85;;
63203;SDS011;49297;43.210;27.914;2022-09-09T02:36:56;3.72;;;2.50;;
63203;SDS011;49297;43.210;27.914;2022-09-09T02:39:22;6.23;;;2.90;;
63203;SDS011;49297;43.210;27.914;2022-09-09T02:41:48;5.05;;;3.20;;
63203;SDS011;49297;43.210;27.914;2022-09-09T02:44:15;7.18;;;3.08;;
63203;SDS011;49297;43.210;27.914;2022-09-09T02:54:38;4.50;;;2.85;;
63203;SDS011;49297;43.210;27.914;2022-09-09T02:59:37;4.07;;;2.70;;
63203;SDS011;49297;43.210;27.914;2022-09-09T03:02:04;3.17;;;2.85;;
63203;SDS011;49297;43.210;27.914;2022-09-09T03:04:30;3.95;;;2.85;;
63203;SDS011;49297;43.210;27.914;2022-09-09T03:06:56;3.80;;;3.20;;
63203;SDS011;49297;43.210;27.914;2022-09-09T03:09:23;5.28;;;3.00;;
63203;SDS011;49297;43.210;27.914;2022-09-09T03:11:51;2.67;;;2.47;;
63203;SDS011;49297;43.210;27.914;2022-09-09T03:16:58;3.80;;;2.55;;
63203;SDS011;49297;43.210;27.914;2022-09-09T03:19:26;5.43;;;2.60;;
63203;SDS011;49297;43.210;27.914;2022-09-09T03:21:53;3.63;;;2.85;;
63203;SDS011;49297;43.210;27.914;2022-09-09T03:24:19;3.05;;;2.70;;
63203;SDS011;49297;43.210;27.914;2022-09-09T03:26:45;5.07;;;3.03;;
63203;SDS011;49297;43.210;27.914;2022-09-09T03:29:11;6.15;;;3.40;;
63203;SDS011;49297;43.210;27.914;2022-09-09T03:31:38;4.93;;;2.92;;
63203;SDS011;49297;43.210;27.914;2022-09-09T03:34:04;3.90;;;3.38;;
63203;SDS011;49297;43.210;27.914;2022-09-09T03:36:31;5.15;;;3.45;;
63203;SDS011;49297;43.210;27.914;2022-09-09T03:38:57;4.40;;;3.40;;
63203;SDS011;49297;43.210;27.914;2022-09-09T03:41:23;4.63;;;3.20;;
63203;SDS011;49297;43.210;27.914;2022-09-09T03:43:50;4.93;;;3.60;;
63203;SDS011;49297;43.210;27.914;2022-09-09T03:46:17;5.28;;;4.15;;
63203;SDS011;49297;43.210;27.914;2022-09-09T03:48:47;6.97;;;3.58;;
63203;SDS011;49297;43.210;27.914;2022-09-09T03:51:12;4.53;;;3.60;;
63203;SDS011;49297;43.210;27.914;2022-09-09T03:53:39;3.72;;;3.40;;
63203;SDS011;49297;43.210;27.914;2022-09-09T03:56:05;5.93;;;3.58;;
63203;SDS011;49297;43.210;27.914;2022-09-09T03:58:37;5.93;;;4.28;;
63203;SDS011;49297;43.210;27.914;2022-09-09T04:01:05;4.85;;;3.30;;
63203;SDS011;49297;43.210;27.914;2022-09-09T04:03:33;9.73;;;4.37;;
63203;SDS011;49297;43.210;27.914;2022-09-09T04:06:00;6.30;;;4.55;;
63203;SDS011;49297;43.210;27.914;2022-09-09T04:08:30;5.72;;;4.25;;
63203;SDS011;49297;43.210;27.914;2022-09-09T04:10:59;12.63;;;4.20;;
63203;SDS011;49297;43.210;27.914;2022-09-09T04:13:27;6.33;;;4.40;;
63203;SDS011;49297;43.210;27.914;2022-09-09T04:18:22;5.85;;;4.68;;
63203;SDS011;49297;43.210;27.914;2022-09-09T04:20:49;10.73;;;4.65;;
63203;SDS011;49297;43.210;27.914;2022-09-09T04:23:16;5.70;;;4.45;;
63203;SDS011;49297;43.210;27.914;2022-09-09T04:25:48;7.68;;;4.50;;
63203;SDS011;49297;43.210;27.914;2022-09-09T04:28:15;8.30;;;4.68;;
63203;SDS011;49297;43.210;27.914;2022-09-09T04:30:42;7.18;;;4.75;;
63203;SDS011;49297;43.210;27.914;2022-09-09T04:33:08;8.52;;;4.90;;
63203;SDS011;49297;43.210;27.914;2022-09-09T04:35:35;7.20;;;4.38;;
63203;SDS011;49297;43.210;27.914;2022-09-09T04:38:03;11.57;;;4.70;;
63203;SDS011;49297;43.210;27.914;2022-09-09T04:40:29;6.07;;;4.03;;
63203;SDS011;49297;43.210;27.914;2022-09-09T04:42:59;9.63;;;4.85;;
63203;SDS011;49297;43.210;27.914;2022-09-09T04:45:25;7.20;;;4.53;;
63203;SDS011;49297;43.210;27.914;2022-09-09T04:47:51;11.52;;;5.30;;
63203;SDS011;49297;43.210;27.914;2022-09-09T04:50:17;7.15;;;4.55;;
63203;SDS011;49297;43.210;27.914;2022-09-09T04:52:44;8.43;;;4.65;;
63203;SDS011;49297;43.210;27.914;2022-09-09T04:55:10;7.53;;;4.82;;
63203;SDS011;49297;43.210;27.914;2022-09-09T04:57:38;10.10;;;4.70;;
63203;SDS011;49297;43.210;27.914;2022-09-09T05:00:04;8.07;;;4.47;;
63203;SDS011;49297;43.210;27.914;2022-09-09T05:02:31;11.38;;;5.35;;
63203;SDS011;49297;43.210;27.914;2022-09-09T05:04:57;7.95;;;4.15;;
63203;SDS011;49297;43.210;27.914;2022-09-09T05:07:23;5.90;;;3.97;;
63203;SDS011;49297;43.210;27.914;2022-09-09T05:09:51;6.07;;;3.78;;
63203;SDS011;49297;43.210;27.914;2022-09-09T05:12:17;6.07;;;3.90;;
63203;SDS011;49297;43.210;27.914;2022-09-09T05:14:43;13.53;;;4.73;;
63203;SDS011;49297;43.210;27.914;2022-09-09T05:17:09;11.77;;;4.95;;
63203;SDS011;49297;43.210;27.914;2022-09-09T05:19:35;18.83;;;4.30;;
63203;SDS011;49297;43.210;27.914;2022-09-09T05:24:37;11.57;;;4.88;;
63203;SDS011;49297;43.210;27.914;2022-09-09T05:27:04;14.48;;;4.43;;
63203;SDS011;49297;43.210;27.914;2022-09-09T05:29:31;5.83;;;3.00;;
63203;SDS011;49297;43.210;27.914;2022-09-09T05:32:00;8.20;;;2.10;;
63203;SDS011;49297;43.210;27.914;2022-09-09T05:34:26;2.33;;;1.57;;
63203;SDS011;49297;43.210;27.914;2022-09-09T05:36:52;2.92;;;2.15;;
63203;SDS011;49297;43.210;27.914;2022-09-09T05:39:18;7.37;;;2.10;;
63203;SDS011;49297;43.210;27.914;2022-09-09T05:41:44;3.33;;;1.48;;
63203;SDS011;49297;43.210;27.914;2022-09-09T05:44:10;7.80;;;3.33;;
63203;SDS011;49297;43.210;27.914;2022-09-09T05:46:36;7.00;;;3.30;;
63203;SDS011;49297;43.210;27.914;2022-09-09T05:49:05;3.55;;;2.30;;
63203;SDS011;49297;43.210;27.914;2022-09-09T05:51:31;4.32;;;2.33;;
63203;SDS011;49297;43.210;27.914;2022-09-09T05:53:58;3.03;;;2.08;;
63203;SDS011;49297;43.210;27.914;2022-09-09T05:56:24;5.80;;;2.00;;
63203;SDS011;49297;43.210;27.914;2022-09-09T05:58:53;5.90;;;2.38;;
63203;SDS011;49297;43.210;27.914;2022-09-09T06:01:20;4.07;;;1.70;;
63203;SDS011;49297;43.210;27.914;2022-09-09T06:03:51;3.63;;;2.40;;
63203;SDS011;49297;43.210;27.914;2022-09-09T06:06:18;3.67;;;2.22;;
63203;SDS011;49297;43.210;27.914;2022-09-09T06:08:53;4.13;;;2.17;;
63203;SDS011;49297;43.210;27.914;2022-09-09T06:11:23;7.35;;;2.47;;
63203;SDS011;49297;43.210;27.914;2022-09-09T06:13:51;4.97;;;2.60;;
63203;SDS011;49297;43.210;27.914;2022-09-09T06:16:19;9.90;;;3.25;;
63203;SDS011;49297;43.210;27.914;2022-09-09T06:18:48;5.72;;;2.55;;
63203;SDS011;49297;43.210;27.914;2022-09-09T06:21:19;3.63;;;2.37;;
63203;SDS011;49297;43.210;27.914;2022-09-09T06:23:50;4.45;;;2.45;;
63203;SDS011;49297;43.210;27.914;2022-09-09T06:26:20;5.47;;;2.55;;
63203;SDS011;49297;43.210;27.914;2022-09-09T06:28:51;3.60;;;2.00;;
63203;SDS011;49297;43.210;27.914;2022-09-09T06:31:19;7.32;;;2.00;;
63203;SDS011;49297;43.210;27.914;2022-09-09T06:33:47;8.13;;;2.78;;
63203;SDS011;49297;43.210;27.914;2022-09-09T06:36:18;5.25;;;2.63;;
63203;SDS011;49297;43.210;27.914;2022-09-09T06:38:45;5.53;;;1.73;;
63203;SDS011;49297;43.210;27.914;2022-09-09T06:41:14;5.35;;;3.35;;
63203;SDS011;49297;43.210;27.914;2022-09-09T06:43:41;9.63;;;3.30;;
63203;SDS011;49297;43.210;27.914;2022-09-09T06:46:09;6.03;;;2.78;;
63203;SDS011;49297;43.210;27.914;2022-09-09T06:48:35;3.72;;;1.95;;
63203;SDS011;49297;43.210;27.914;2022-09-09T06:51:09;5.22;;;2.25;;
63203;SDS011;49297;43.210;27.914;2022-09-09T06:53:37;5.65;;;2.20;;
63203;SDS011;49297;43.210;27.914;2022-09-09T06:58:37;3.92;;;2.08;;
63203;SDS011;49297;43.210;27.914;2022-09-09T07:01:12;7.93;;;2.33;;
63203;SDS011;49297;43.210;27.914;2022-09-09T07:03:39;1.83;;;1.50;;
63203;SDS011;49297;43.210;27.914;2022-09-09T07:06:06;4.30;;;1.90;;
63203;SDS011;49297;43.210;27.914;2022-09-09T07:08:32;5.10;;;3.37;;
63203;SDS011;49297;43.210;27.914;2022-09-09T07:11:04;3.70;;;2.33;;
63203;SDS011;49297;43.210;27.914;2022-09-09T07:13:31;3.50;;;1.77;;
63203;SDS011;49297;43.210;27.914;2022-09-09T07:16:04;2.67;;;1.55;;
63203;SDS011;49297;43.210;27.914;2022-09-09T07:18:34;3.10;;;1.80;;
63203;SDS011;49297;43.210;27.914;2022-09-09T07:21:00;3.58;;;2.08;;
63203;SDS011;49297;43.210;27.914;2022-09-09T07:23:27;2.90;;;1.73;;
63203;SDS011;49297;43.210;27.914;2022-09-09T07:25:54;3.85;;;2.33;;
63203;SDS011;49297;43.210;27.914;2022-09-09T07:28:20;6.18;;;1.90;;
63203;SDS011;49297;43.210;27.914;2022-09-09T07:30:53;6.10;;;2.50;;
63203;SDS011;49297;43.210;27.914;2022-09-09T07:33:20;4.63;;;1.85;;
63203;SDS011;49297;43.210;27.914;2022-09-09T07:35:46;2.20;;;1.80;;
63203;SDS011;49297;43.210;27.914;2022-09-09T07:38:12;16.77;;;3.60;;
63203;SDS011;49297;43.210;27.914;2022-09-09T07:40:37;4.63;;;1.73;;
63203;SDS011;49297;43.210;27.914;2022-09-09T07:43:03;5.70;;;1.80;;
63203;SDS011;49297;43.210;27.914;2022-09-09T07:45:29;3.57;;;1.60;;
63203;SDS011;49297;43.210;27.914;2022-09-09T07:47:57;4.65;;;2.20;;
63203;SDS011;49297;43.210;27.914;2022-09-09T07:50:24;2.58;;;1.85;;
63203;SDS011;49297;43.210;27.914;2022-09-09T07:52:51;2.92;;;2.20;;
63203;SDS011;49297;43.210;27.914;2022-09-09T07:55:19;2.58;;;1.70;;
63203;SDS011;49297;43.210;27.914;2022-09-09T07:57:46;3.58;;;1.88;;
63203;SDS011;49297;43.210;27.914;2022-09-09T08:00:12;2.95;;;1.50;;
63203;SDS011;49297;43.210;27.914;2022-09-09T08:02:40;4.85;;;2.03;;
63203;SDS011;49297;43.210;27.914;2022-09-09T08:05:06;1.98;;;1.27;;
63203;SDS011;49297;43.210;27.914;2022-09-09T08:07:32;3.63;;;1.52;;
63203;SDS011;49297;43.210;27.914;2022-09-09T08:09:58;3.17;;;1.80;;
63203;SDS011;49297;43.210;27.914;2022-09-09T08:12:23;2.72;;;1.95;;
63203;SDS011;49297;43.210;27.914;2022-09-09T08:14:49;4.40;;;1.90;;
63203;SDS011;49297;43.210;27.914;2022-09-09T08:17:16;3.92;;;1.45;;
63203;SDS011;49297;43.210;27.914;2022-09-09T08:19:42;2.20;;;1.55;;
63203;SDS011;49297;43.210;27.914;2022-09-09T08:22:09;3.72;;;1.77;;
63203;SDS011;49297;43.210;27.914;2022-09-09T08:24:35;1.97;;;1.50;;
63203;SDS011;49297;43.210;27.914;2022-09-09T08:27:01;1.60;;;1.15;;
63203;SDS011;49297;43.210;27.914;2022-09-09T08:29:27;2.55;;;1.88;;
63203;SDS011;49297;43.210;27.914;2022-09-09T08:31:55;9.18;;;1.75;;
63203;SDS011;49297;43.210;27.914;2022-09-09T08:34:23;1.85;;;1.40;;
63203;SDS011;49297;43.210;27.914;2022-09-09T08:36:52;4.53;;;1.80;;
63203;SDS011;49297;43.210;27.914;2022-09-09T08:39:19;4.72;;;1.58;;
63203;SDS011;49297;43.210;27.914;2022-09-09T08:47:42;6.78;;;2.25;;
63203;SDS011;49297;43.210;27.914;2022-09-09T08:50:47;4.47;;;1.95;;
63203;SDS011;49297;43.210;27.914;2022-09-09T08:53:14;4.23;;;1.60;;
63203;SDS011;49297;43.210;27.914;2022-09-09T08:55:48;2.78;;;1.60;;
63203;SDS011;49297;43.210;27.914;2022-09-09T08:58:22;4.97;;;2.03;;
63203;SDS011;49297;43.210;27.914;2022-09-09T09:00:55;3.13;;;1.77;;
63203;SDS011;49297;43.210;27.914;2022-09-09T09:03:30;2.65;;;2.05;;
63203;SDS011;49297;43.210;27.914;2022-09-09T09:06:48;4.63;;;2.03;;
63203;SDS011;49297;43.210;27.914;2022-09-09T09:09:02;7.13;;;2.30;;
63203;SDS011;49297;43.210;27.914;2022-09-09T09:11:50;2.95;;;1.65;;
63203;SDS011;49297;43.210;27.914;2022-09-09T09:14:22;2.75;;;1.60;;
63203;SDS011;49297;43.210;27.914;2022-09-09T09:16:51;5.90;;;2.25;;
63203;SDS011;49297;43.210;27.914;2022-09-09T09:19:22;4.40;;;1.92;;
63203;SDS011;49297;43.210;27.914;2022-09-09T09:21:52;4.72;;;1.67;;
63203;SDS011;49297;43.210;27.914;2022-09-09T09:24:20;3.83;;;2.10;;
63203;SDS011;49297;43.210;27.914;2022-09-09T09:29:19;6.95;;;2.35;;
63203;SDS011;49297;43.210;27.914;2022-09-09T09:31:53;3.92;;;2.20;;
63203;SDS011;49297;43.210;27.914;2022-09-09T09:34:22;3.13;;;1.95;;
63203;SDS011;49297;43.210;27.914;2022-09-09T09:36:53;9.18;;;2.45;;
63203;SDS011;49297;43.210;27.914;2022-09-09T09:39:22;4.75;;;2.00;;
63203;SDS011;49297;43.210;27.914;2022-09-09T09:41:50;4.18;;;1.70;;
63203;SDS011;49297;43.210;27.914;2022-09-09T09:44:29;3.35;;;2.55;;
63203;SDS011;49297;43.210;27.914;2022-09-09T09:47:12;3.45;;;2.00;;
63203;SDS011;49297;43.210;27.914;2022-09-09T09:50:01;3.80;;;1.98;;
63203;SDS011;49297;43.210;27.914;2022-09-09T09:52:30;4.10;;;1.80;;
63203;SDS011;49297;43.210;27.914;2022-09-09T09:54:57;6.28;;;3.33;;
63203;SDS011;49297;43.210;27.914;2022-09-09T09:57:28;2.85;;;1.90;;
63203;SDS011;49297;43.210;27.914;2022-09-09T10:00:12;5.47;;;2.33;;
63203;SDS011;49297;43.210;27.914;2022-09-09T10:02:44;4.00;;;2.10;;
63203;SDS011;49297;43.210;27.914;2022-09-09T10:05:21;3.33;;;1.65;;
63203;SDS011;49297;43.210;27.914;2022-09-09T10:08:02;7.75;;;2.40;;
63203;SDS011;49297;43.210;27.914;2022-09-09T10:10:34;3.92;;;1.80;;
63203;SDS011;49297;43.210;27.914;2022-09-09T10:13:11;3.00;;;1.80;;
63203;SDS011;49297;43.210;27.914;2022-09-09T10:16:39;7.75;;;6.68;;
63203;SDS011;49297;43.210;27.914;2022-09-09T10:19:02;8.77;;;2.07;;
63203;SDS011;49297;43.210;27.914;2022-09-09T10:32:45;5.70;;;2.03;;
63203;SDS011;49297;43.210;27.914;2022-09-09T10:46:18;2.72;;;1.85;;
63203;SDS011;49297;43.210;27.914;2022-09-09T10:51:49;2.63;;;1.95;;
63203;SDS011;49297;43.210;27.914;2022-09-09T10:54:55;4.22;;;1.70;;
63203;SDS011;49297;43.210;27.914;2022-09-09T10:57:41;3.03;;;1.80;;
63203;SDS011;49297;43.210;27.914;2022-09-09T11:00:20;2.20;;;1.40;;
63203;SDS011;49297;43.210;27.914;2022-09-09T11:03:01;6.10;;;2.17;;
63203;SDS011;49297;43.210;27.914;2022-09-09T11:05:30;5.35;;;1.70;;
63203;SDS011;49297;43.210;27.914;2022-09-09T11:08:33;4.53;;;1.85;;
63203;SDS011;49297;43.210;27.914;2022-09-09T11:22:05;5.00;;;2.50;;
63203;SDS011;49297;43.210;27.914;2022-09-09T11:39:05;3.40;;;1.90;;
63203;SDS011;49297;43.210;27.914;2022-09-09T11:42:08;3.13;;;1.90;;
63203;SDS011;49297;43.210;27.914;2022-09-09T11:44:43;3.28;;;2.20;;
63203;SDS011;49297;43.210;27.914;2022-09-09T11:47:20;3.95;;;2.13;;
63203;SDS011;49297;43.210;27.914;2022-09-09T11:52:42;5.03;;;1.93;;
63203;SDS011;49297;43.210;27.914;2022-09-09T11:58:03;3.17;;;1.83;;
63203;SDS011;49297;43.210;27.914;2022-09-09T12:00:43;6.95;;;2.28;;
63203;SDS011;49297;43.210;27.914;2022-09-09T12:06:09;3.40;;;2.00;;
63203;SDS011;49297;43.210;27.914;2022-09-09T12:27:20;7.05;;;1.70;;
63203;SDS011;49297;43.210;27.914;2022-09-09T12:36:27;2.42;;;1.63;;
63203;SDS011;49297;43.210;27.914;2022-09-09T12:39:18;4.75;;;2.05;;
63203;SDS011;49297;43.210;27.914;2022-09-09T12:41:57;2.50;;;1.50;;
63203;SDS011;49297;43.210;27.914;2022-09-09T12:44:32;2.55;;;1.55;;
63203;SDS011;49297;43.210;27.914;2022-09-09T12:47:09;3.85;;;1.67;;
63203;SDS011;49297;43.210;27.914;2022-09-09T12:52:53;1.70;;;1.53;;
63203;SDS011;49297;43.210;27.914;2022-09-09T12:55:58;5.50;;;2.28;;
63203;SDS011;49297;43.210;27.914;2022-09-09T13:05:43;4.70;;;2.13;;
63203;SDS011;49297;43.210;27.914;2022-09-09T13:08:27;2.93;;;1.87;;
63203;SDS011;49297;43.210;27.914;2022-09-09T13:11:03;4.07;;;1.90;;
63203;SDS011;49297;43.210;27.914;2022-09-09T13:14:14;4.15;;;2.05;;
63203;SDS011;49297;43.210;27.914;2022-09-09T13:18:17;2.45;;;2.03;;
63203;SDS011;49297;43.210;27.914;2022-09-09T13:20:55;4.40;;;3.17;;
63203;SDS011;49297;43.210;27.914;2022-09-09T13:26:41;4.38;;;1.92;;
63203;SDS011;49297;43.210;27.914;2022-09-09T13:45:55;4.45;;;2.70;;
63203;SDS011;49297;43.210;27.914;2022-09-09T13:48:23;5.68;;;3.55;;
63203;SDS011;49297;43.210;27.914;2022-09-09T13:50:57;3.35;;;2.92;;
63203;SDS011;49297;43.210;27.914;2022-09-09T13:53:24;2.90;;;2.60;;
63203;SDS011;49297;43.210;27.914;2022-09-09T13:55:52;3.95;;;3.15;;
63203;SDS011;49297;43.210;27.914;2022-09-09T13:58:19;5.10;;;3.28;;
63203;SDS011;49297;43.210;27.914;2022-09-09T14:00:48;10.80;;;3.67;;
63203;SDS011;49297;43.210;27.914;2022-09-09T14:03:15;4.97;;;3.80;;
63203;SDS011;49297;43.210;27.914;2022-09-09T14:05:41;3.78;;;2.65;;
63203;SDS011;49297;43.210;27.914;2022-09-09T14:08:10;4.53;;;3.33;;
63203;SDS011;49297;43.210;27.914;2022-09-09T14:10:51;4.63;;;3.60;;
63203;SDS011;49297;43.210;27.914;2022-09-09T14:13:17;3.42;;;3.10;;
63203;SDS011;49297;43.210;27.914;2022-09-09T14:15:43;3.80;;;3.45;;
63203;SDS011;49297;43.210;27.914;2022-09-09T14:18:12;6.00;;;3.20;;
63203;SDS011;49297;43.210;27.914;2022-09-09T14:20:38;3.85;;;3.47;;
63203;SDS011;49297;43.210;27.914;2022-09-09T14:23:04;4.97;;;3.40;;
63203;SDS011;49297;43.210;27.914;2022-09-09T14:25:30;3.50;;;2.90;;
63203;SDS011;49297;43.210;27.914;2022-09-09T14:27:56;4.80;;;3.45;;
63203;SDS011;49297;43.210;27.914;2022-09-09T14:30:22;6.40;;;3.77;;
63203;SDS011;49297;43.210;27.914;2022-09-09T14:32:48;4.18;;;3.30;;
63203;SDS011;49297;43.210;27.914;2022-09-09T14:35:13;4.37;;;3.97;;
63203;SDS011;49297;43.210;27.914;2022-09-09T14:37:39;3.55;;;3.25;;
63203;SDS011;49297;43.210;27.914;2022-09-09T14:40:05;6.93;;;4.03;;
63203;SDS011;49297;43.210;27.914;2022-09-09T14:42:32;5.43;;;3.13;;
63203;SDS011;49297;43.210;27.914;2022-09-09T14:44:58;7.45;;;3.53;;
63203;SDS011;49297;43.210;27.914;2022-09-09T14:47:23;6.25;;;3.85;;
63203;SDS011;49297;43.210;27.914;2022-09-09T14:49:49;4.63;;;4.10;;
63203;SDS011;49297;43.210;27.914;2022-09-09T14:55:05;5.07;;;3.05;;
63203;SDS011;49297;43.210;27.914;2022-09-09T14:57:32;3.78;;;3.45;;
63203;SDS011;49297;43.210;27.914;2022-09-09T15:00:00;3.92;;;3.08;;
63203;SDS011;49297;43.210;27.914;2022-09-09T15:02:25;3.73;;;3.23;;
63203;SDS011;49297;43.210;27.914;2022-09-09T15:04:51;3.75;;;3.08;;
63203;SDS011;49297;43.210;27.914;2022-09-09T15:07:17;6.10;;;3.47;;
63203;SDS011;49297;43.210;27.914;2022-09-09T15:09:44;4.13;;;3.83;;
63203;SDS011;49297;43.210;27.914;2022-09-09T15:12:12;3.70;;;3.30;;
63203;SDS011;49297;43.210;27.914;2022-09-09T15:14:39;4.28;;;3.55;;
63203;SDS011;49297;43.210;27.914;2022-09-09T15:17:05;7.13;;;5.03;;
63203;SDS011;49297;43.210;27.914;2022-09-09T15:19:31;6.47;;;4.57;;
63203;SDS011;49297;43.210;27.914;2022-09-09T15:21:57;4.45;;;3.17;;
63203;SDS011;49297;43.210;27.914;2022-09-09T15:24:25;5.20;;;3.20;;
63203;SDS011;49297;43.210;27.914;2022-09-09T15:26:54;3.83;;;3.00;;
63203;SDS011;49297;43.210;27.914;2022-09-09T15:29:21;5.20;;;3.42;;
63203;SDS011;49297;43.210;27.914;2022-09-09T15:31:47;4.07;;;3.20;;
63203;SDS011;49297;43.210;27.914;2022-09-09T15:34:13;4.60;;;3.50;;
63203;SDS011;49297;43.210;27.914;2022-09-09T15:36:39;3.75;;;2.90;;
63203;SDS011;49297;43.210;27.914;2022-09-09T15:39:10;3.70;;;2.78;;
63203;SDS011;49297;43.210;27.914;2022-09-09T15:41:41;4.93;;;3.17;;
63203;SDS011;49297;43.210;27.914;2022-09-09T15:44:12;4.22;;;3.33;;
63203;SDS011;49297;43.210;27.914;2022-09-09T15:46:39;5.60;;;4.00;;
63203;SDS011;49297;43.210;27.914;2022-09-09T15:49:08;5.38;;;3.95;;
63203;SDS011;49297;43.210;27.914;2022-09-09T15:51:35;5.93;;;3.83;;
63203;SDS011;49297;43.210;27.914;2022-09-09T15:54:03;6.35;;;3.58;;
63203;SDS011;49297;43.210;27.914;2022-09-09T15:56:29;4.63;;;4.00;;
63203;SDS011;49297;43.210;27.914;2022-09-09T15:58:58;5.65;;;4.28;;
63203;SDS011;49297;43.210;27.914;2022-09-09T16:01:26;4.97;;;4.45;;
63203;SDS011;49297;43.210;27.914;2022-09-09T16:03:52;5.53;;;3.57;;
63203;SDS011;49297;43.210;27.914;2022-09-09T16:06:19;4.65;;;3.63;;
63203;SDS011;49297;43.210;27.914;2022-09-09T16:08:47;6.75;;;4.30;;
63203;SDS011;49297;43.210;27.914;2022-09-09T16:11:22;10.90;;;4.67;;
63203;SDS011;49297;43.210;27.914;2022-09-09T16:13:50;4.80;;;4.10;;
63203;SDS011;49297;43.210;27.914;2022-09-09T16:16:18;5.25;;;4.40;;
63203;SDS011;49297;43.210;27.914;2022-09-09T16:18:48;7.68;;;4.60;;
63203;SDS011;49297;43.210;27.914;2022-09-09T16:21:21;4.37;;;3.90;;
63203;SDS011;49297;43.210;27.914;2022-09-09T16:23:58;3.85;;;3.47;;
63203;SDS011;49297;43.210;27.914;2022-09-09T16:26:26;4.47;;;3.75;;
63203;SDS011;49297;43.210;27.914;2022-09-09T16:28:53;5.63;;;3.65;;
63203;SDS011;49297;43.210;27.914;2022-09-09T16:31:21;3.75;;;3.45;;
63203;SDS011;49297;43.210;27.914;2022-09-09T16:33:48;5.47;;;4.55;;
63203;SDS011;49297;43.210;27.914;2022-09-09T16:36:16;7.15;;;5.05;;
63203;SDS011;49297;43.210;27.914;2022-09-09T16:38:44;6.20;;;4.05;;
63203;SDS011;49297;43.210;27.914;2022-09-09T16:41:11;5.43;;;3.75;;
63203;SDS011;49297;43.210;27.914;2022-09-09T16:43:38;6.30;;;4.00;;
63203;SDS011;49297;43.210;27.914;2022-09-09T16:46:15;4.47;;;3.78;;
63203;SDS011;49297;43.210;27.914;2022-09-09T16:48:43;4.90;;;3.75;;
63203;SDS011;49297;43.210;27.914;2022-09-09T16:51:14;5.05;;;3.45;;
63203;SDS011;49297;43.210;27.914;2022-09-09T16:53:42;4.53;;;3.60;;
63203;SDS011;49297;43.210;27.914;2022-09-09T16:56:09;5.43;;;4.25;;
63203;SDS011;49297;43.210;27.914;2022-09-09T16:58:36;6.32;;;4.07;;
63203;SDS011;49297;43.210;27.914;2022-09-09T17:01:03;4.93;;;3.90;;
63203;SDS011;49297;43.210;27.914;2022-09-09T17:03:30;6.70;;;4.13;;
63203;SDS011;49297;43.210;27.914;2022-09-09T17:05:57;6.22;;;3.72;;
63203;SDS011;49297;43.210;27.914;2022-09-09T17:08:25;5.80;;;3.97;;
63203;SDS011;49297;43.210;27.914;2022-09-09T17:10:51;5.80;;;3.67;;
63203;SDS011;49297;43.210;27.914;2022-09-09T17:13:17;7.93;;;4.63;;
63203;SDS011;49297;43.210;27.914;2022-09-09T17:15:44;4.55;;;3.67;;
63203;SDS011;49297;43.210;27.914;2022-09-09T17:18:11;6.18;;;3.90;;
63203;SDS011;49297;43.210;27.914;2022-09-09T17:20:37;4.55;;;3.55;;
63203;SDS011;49297;43.210;27.914;2022-09-09T17:23:09;4.10;;;3.77;;
63203;SDS011;49297;43.210;27.914;2022-09-09T17:25:39;5.00;;;4.40;;
63203;SDS011;49297;43.210;27.914;2022-09-09T17:28:06;6.55;;;3.90;;
63203;SDS011;49297;43.210;27.914;2022-09-09T17:30:35;6.35;;;4.50;;
63203;SDS011;49297;43.210;27.914;2022-09-09T17:33:02;6.60;;;4.40;;
63203;SDS011;49297;43.210;27.914;2022-09-09T17:35:29;5.70;;;4.13;;
63203;SDS011;49297;43.210;27.914;2022-09-09T17:37:55;5.43;;;3.78;;
63203;SDS011;49297;43.210;27.914;2022-09-09T17:40:21;5.50;;;4.00;;
63203;SDS011;49297;43.210;27.914;2022-09-09T17:42:48;5.00;;;3.97;;
63203;SDS011;49297;43.210;27.914;2022-09-09T17:45:14;5.13;;;3.25;;
63203;SDS011;49297;43.210;27.914;2022-09-09T17:47:41;4.55;;;3.85;;
63203;SDS011;49297;43.210;27.914;2022-09-09T17:50:08;3.72;;;3.10;;
63203;SDS011;49297;43.210;27.914;2022-09-09T17:52:38;5.75;;;3.10;;
63203;SDS011;49297;43.210;27.914;2022-09-09T17:55:06;4.15;;;3.25;;
63203;SDS011;49297;43.210;27.914;2022-09-09T17:57:34;5.33;;;3.37;;
63203;SDS011;49297;43.210;27.914;2022-09-09T18:00:00;6.30;;;3.17;;
63203;SDS011;49297;43.210;27.914;2022-09-09T18:02:26;5.40;;;2.97;;
63203;SDS011;49297;43.210;27.914;2022-09-09T18:04:52;9.20;;;4.00;;